createdAt,value
2019-05-16T00:01:19.273Z,84.07
2019-05-16T00:03:52.003Z,84.17
2019-05-16T00:06:25.459Z,83.88
2019-05-16T00:08:58.935Z,83.89
2019-05-16T00:11:32.362Z,84.00
2019-05-16T00:14:08.189Z,84.10
2019-05-16T00:16:41.141Z,84.09
2019-05-16T00:19:14.574Z,84.16
2019-05-16T00:21:48.804Z,84.32
2019-05-16T00:24:22.344Z,84.34
2019-05-16T00:26:57.929Z,84.42
2019-05-16T00:29:30.794Z,84.26
2019-05-16T00:32:04.257Z,84.14
2019-05-16T00:34:38.470Z,84.23
2019-05-16T00:37:11.983Z,84.18
2019-05-16T00:39:45.485Z,84.67
2019-05-16T00:42:18.947Z,84.62
2019-05-16T00:44:52.418Z,84.60
2019-05-16T00:47:28.249Z,84.59
2019-05-16T00:50:01.059Z,84.49
2019-05-16T00:52:34.509Z,84.89
2019-05-16T00:55:08.486Z,84.80
2019-05-16T00:57:42.678Z,84.50
2019-05-16T01:00:18.155Z,84.68
2019-05-16T01:02:51.639Z,84.56
2019-05-16T01:05:25.091Z,84.86
2019-05-16T01:07:58.530Z,84.96
2019-05-16T01:10:32.098Z,85.03
2019-05-16T01:13:07.862Z,85.07
2019-05-16T01:15:41.648Z,85.47
2019-05-16T01:18:15.105Z,85.57
2019-05-16T01:20:48.553Z,85.36
2019-05-16T01:23:22.994Z,85.42
2019-05-16T01:25:58.891Z,85.48
2019-05-16T01:28:32.531Z,85.54
2019-05-16T01:31:08.404Z,85.60
2019-05-16T01:33:41.376Z,85.73
2019-05-16T01:36:14.835Z,85.79
2019-05-16T01:38:48.577Z,85.67
2019-05-16T01:41:23.049Z,85.63
2019-05-16T01:43:58.382Z,85.84
2019-05-16T01:46:31.607Z,85.89
2019-05-16T01:49:05.047Z,85.89
2019-05-16T01:51:38.508Z,86.04
2019-05-16T01:54:11.866Z,85.92
2019-05-16T01:56:45.287Z,85.95
2019-05-16T01:59:18.772Z,85.70
2019-05-16T02:01:52.221Z,85.75
2019-05-16T02:04:25.684Z,85.85
2019-05-16T02:06:59.142Z,85.87
2019-05-16T02:09:32.550Z,85.87
2019-05-16T02:12:08.198Z,85.76
2019-05-16T02:14:41.191Z,85.64
2019-05-16T02:17:14.850Z,85.55
2019-05-16T02:19:48.630Z,85.32
2019-05-16T02:22:22.061Z,85.23
2019-05-16T02:24:55.504Z,85.06
2019-05-16T02:27:28.968Z,85.21
2019-05-16T02:30:02.415Z,85.08
2019-05-16T02:32:35.888Z,85.18
2019-05-16T02:35:11.730Z,84.97
2019-05-16T02:37:44.779Z,84.91
2019-05-16T02:40:24.066Z,84.77
2019-05-16T02:43:01.551Z,84.72
2019-05-16T02:45:33.521Z,84.92
2019-05-16T02:48:07.021Z,84.88
2019-05-16T02:50:41.484Z,84.90
2019-05-16T02:53:15.025Z,84.82
2019-05-16T02:55:51.521Z,84.91
2019-05-16T02:58:24.861Z,84.87
2019-05-16T03:01:01.476Z,84.76
2019-05-16T03:03:33.885Z,84.57
2019-05-16T03:06:10.919Z,84.45
2019-05-16T03:08:42.970Z,84.37
2019-05-16T03:11:20.771Z,84.31
2019-05-16T03:13:55.268Z,84.24
2019-05-16T03:16:31.782Z,84.18
2019-05-16T03:19:05.980Z,84.28
2019-05-16T03:21:43.405Z,84.31
2019-05-16T03:24:16.850Z,84.41
2019-05-16T03:26:51.525Z,84.26
2019-05-16T03:29:25.063Z,84.23
2019-05-16T03:32:02.889Z,84.36
2019-05-16T03:34:34.704Z,84.58
2019-05-16T03:37:13.560Z,84.37
2019-05-16T03:39:43.395Z,84.56
2019-05-16T03:42:20.230Z,84.54
2019-05-16T03:44:52.161Z,84.67
2019-05-16T03:47:25.599Z,84.65
2019-05-16T03:50:00.614Z,84.62
2019-05-16T03:52:38.871Z,84.52
2019-05-16T03:55:11.274Z,84.54
2019-05-16T03:57:45.033Z,84.67
2019-05-16T04:00:22.046Z,84.65
2019-05-16T04:02:55.484Z,84.50
2019-05-16T04:05:31.679Z,84.38
2019-05-16T04:08:18.478Z,84.39
2019-05-16T04:10:40.948Z,84.42
2019-05-16T04:13:14.245Z,84.51
2019-05-16T04:15:51.758Z,84.49
2019-05-16T04:18:23.776Z,84.57
2019-05-16T04:20:57.216Z,84.43
2019-05-16T04:23:31.496Z,84.38
2019-05-16T04:26:05.149Z,84.20
2019-05-16T04:28:41.360Z,84.24
2019-05-16T04:31:13.760Z,84.26
2019-05-16T04:33:47.086Z,84.27
2019-05-16T04:36:21.536Z,84.30
2019-05-16T04:38:54.953Z,84.47
2019-05-16T04:41:31.138Z,84.42
2019-05-16T04:44:04.958Z,84.43
2019-05-16T04:46:41.064Z,84.47
2019-05-16T04:49:13.643Z,84.44
2019-05-16T04:51:47.086Z,84.58
2019-05-16T04:54:21.549Z,84.46
2019-05-16T04:56:55.116Z,84.43
2019-05-16T04:59:31.122Z,84.42
2019-05-16T05:02:03.602Z,84.40
2019-05-16T05:04:37.076Z,84.42
2019-05-16T05:07:11.149Z,84.39
2019-05-16T05:09:44.664Z,84.39
2019-05-16T05:12:20.556Z,84.38
2019-05-16T05:14:53.119Z,84.26
2019-05-16T05:17:26.358Z,84.05
2019-05-16T05:20:01.122Z,84.20
2019-05-16T05:22:35.602Z,84.36
2019-05-16T05:25:11.103Z,84.31
2019-05-16T05:27:50.174Z,84.25
2019-05-16T05:30:23.931Z,84.07
2019-05-16T05:32:57.211Z,84.18
2019-05-16T05:35:31.084Z,84.15
2019-05-16T05:38:04.625Z,84.48
2019-05-16T05:40:40.290Z,84.48
2019-05-16T05:43:13.123Z,84.37
2019-05-16T05:45:46.569Z,84.22
2019-05-16T05:48:21.627Z,84.10
2019-05-16T05:50:55.084Z,84.07
2019-05-16T05:53:30.017Z,84.05
2019-05-16T05:56:03.638Z,84.09
2019-05-16T05:58:37.062Z,84.16
2019-05-16T06:01:11.145Z,84.21
2019-05-16T06:03:44.821Z,83.99
2019-05-16T06:06:20.803Z,84.05
2019-05-16T06:08:53.355Z,84.07
2019-05-16T06:11:26.757Z,84.17
2019-05-16T06:14:01.212Z,84.25
2019-05-16T06:16:34.625Z,84.40
2019-05-16T06:19:10.651Z,84.53
2019-05-16T06:21:45.310Z,84.66
2019-05-16T06:24:20.080Z,84.54
2019-05-16T06:26:53.183Z,84.57
2019-05-16T06:29:26.815Z,84.72
2019-05-16T06:32:00.348Z,84.77
2019-05-16T06:34:33.700Z,84.82
2019-05-16T06:37:07.131Z,84.87
2019-05-16T06:39:44.681Z,85.07
2019-05-16T06:42:15.588Z,85.12
2019-05-16T06:44:50.382Z,85.43
2019-05-16T06:47:24.500Z,85.67
2019-05-16T06:50:00.270Z,85.66
2019-05-16T06:52:33.901Z,86.01
2019-05-16T06:55:10.115Z,86.12
2019-05-16T06:57:43.761Z,86.01
2019-05-16T07:00:20.731Z,86.29
2019-05-16T07:02:53.210Z,86.26
2019-05-16T07:05:26.659Z,86.40
2019-05-16T07:08:00.524Z,86.39
2019-05-16T07:10:34.168Z,86.16
2019-05-16T07:13:07.654Z,86.47
2019-05-16T07:15:41.067Z,86.21
2019-05-16T07:18:14.527Z,85.94
2019-05-16T07:20:47.999Z,85.95
2019-05-16T07:23:21.522Z,86.03
2019-05-16T07:25:54.945Z,86.04
2019-05-16T07:28:30.017Z,86.00
2019-05-16T07:31:14.887Z,86.17
2019-05-16T07:33:40.685Z,85.71
2019-05-16T07:36:15.947Z,85.37
2019-05-16T07:38:50.705Z,85.75
2019-05-16T07:41:24.291Z,85.87
2019-05-16T07:43:57.765Z,85.51
2019-05-16T07:46:31.680Z,85.68
2019-05-16T07:49:06.201Z,85.69
2019-05-16T07:51:40.230Z,85.99
2019-05-16T07:54:13.781Z,85.83
2019-05-16T07:56:47.262Z,86.05
2019-05-16T07:59:20.808Z,85.78
2019-05-16T08:01:54.427Z,85.75
2019-05-16T08:04:30.217Z,85.75
2019-05-16T08:07:05.856Z,85.19
2019-05-16T08:09:39.729Z,84.46
2019-05-16T08:12:13.313Z,84.78
2019-05-16T08:14:46.799Z,84.91
2019-05-16T08:17:21.832Z,84.98
2019-05-16T08:19:56.275Z,84.98
2019-05-16T08:22:30.623Z,84.73
2019-05-16T08:25:04.387Z,84.85
2019-05-16T08:27:40.954Z,84.11
2019-05-16T08:30:13.068Z,85.05
2019-05-16T08:32:46.518Z,84.50
2019-05-16T08:35:21.183Z,84.07
2019-05-16T08:37:54.709Z,84.07
2019-05-16T08:40:31.332Z,84.04
2019-05-16T08:43:03.246Z,83.55
2019-05-16T08:45:36.861Z,83.84
2019-05-16T08:48:11.547Z,83.75
2019-05-16T08:53:21.832Z,83.98
2019-05-16T08:55:55.393Z,84.23
2019-05-16T08:58:33.078Z,84.11
2019-05-16T09:01:03.943Z,84.13
2019-05-16T09:03:40.719Z,84.62
2019-05-16T09:06:12.466Z,84.48
2019-05-16T09:08:45.894Z,84.49
2019-05-16T09:10:21.439Z,84.03
2019-05-16T09:11:33.803Z,84.22
2019-05-16T09:13:57.128Z,84.28
2019-05-16T09:16:29.539Z,83.92
2019-05-16T09:19:02.878Z,84.26
2019-05-16T09:21:38.344Z,84.33
2019-05-16T09:24:11.521Z,84.48
2019-05-16T09:26:47.378Z,84.62
2019-05-16T09:29:20.037Z,84.80
2019-05-16T09:32:07.875Z,84.87
2019-05-16T09:34:28.589Z,85.23
2019-05-16T09:37:02.267Z,85.20
2019-05-16T09:39:37.081Z,85.12
2019-05-16T09:42:10.458Z,85.05
2019-05-16T09:44:43.884Z,85.17
2019-05-16T09:47:17.760Z,84.93
2019-05-16T09:49:52.831Z,85.08
2019-05-16T09:52:27.384Z,85.00
2019-05-16T09:55:00.813Z,85.05
2019-05-16T09:57:37.831Z,84.80
2019-05-16T10:00:18.073Z,84.89
2019-05-16T10:02:51.508Z,85.06
2019-05-16T10:05:26.638Z,85.17
2019-05-16T10:08:01.290Z,85.10
2019-05-16T10:10:36.809Z,85.49
2019-05-16T10:13:09.601Z,85.41
2019-05-16T10:15:42.980Z,85.06
2019-05-16T10:18:16.855Z,84.94
2019-05-16T10:20:50.374Z,84.86
2019-05-16T10:23:23.735Z,84.87
2019-05-16T10:25:57.137Z,84.62
2019-05-16T10:28:30.514Z,84.41
2019-05-16T10:31:04.008Z,84.48
2019-05-16T10:33:39.281Z,84.99
2019-05-16T10:36:12.707Z,84.81
2019-05-16T10:38:48.417Z,84.82
2019-05-16T10:41:21.482Z,84.35
2019-05-16T10:43:56.694Z,84.46
2019-05-16T10:46:29.829Z,84.55
2019-05-16T10:49:03.215Z,84.75
2019-05-16T10:51:37.711Z,84.89
2019-05-16T10:54:14.323Z,84.26
2019-05-16T10:56:46.759Z,84.72
2019-05-16T10:59:54.673Z,84.81
2019-05-16T11:01:59.893Z,84.55
2019-05-16T11:04:49.572Z,84.69
2019-05-16T11:07:09.235Z,84.69
2019-05-16T11:09:54.819Z,85.05
2019-05-16T11:12:20.532Z,84.89
2019-05-16T11:14:52.548Z,84.58
2019-05-16T11:17:27.864Z,84.38
2019-05-16T11:20:00.809Z,84.61
2019-05-16T11:22:36.761Z,84.40
2019-05-16T11:25:21.219Z,84.78
2019-05-16T11:27:46.706Z,84.42
2019-05-16T11:30:19.894Z,84.47
2019-05-16T11:32:53.234Z,83.88
2019-05-16T11:35:27.301Z,83.87
2019-05-16T11:38:01.495Z,83.67
2019-05-16T11:40:35.080Z,83.74
2019-05-16T11:43:15.921Z,83.16
2019-05-16T11:45:46.703Z,82.57
2019-05-16T11:48:19.548Z,82.83
2019-05-16T11:50:52.940Z,82.76
2019-05-16T11:53:28.219Z,82.75
2019-05-16T11:56:02.234Z,81.87
2019-05-16T11:58:37.055Z,81.35
2019-05-16T12:01:10.548Z,82.30
2019-05-16T12:03:46.638Z,82.33
2019-05-16T12:06:20.511Z,80.87
2019-05-16T12:08:53.886Z,81.18
2019-05-16T12:11:27.744Z,80.82
2019-05-16T12:14:01.653Z,80.25
2019-05-16T12:16:37.796Z,80.69
2019-05-16T12:19:10.866Z,79.39
2019-05-16T12:21:44.509Z,79.72
2019-05-16T12:24:31.684Z,78.94
2019-05-16T12:26:54.035Z,79.27
2019-05-16T12:29:28.178Z,79.11
2019-05-16T12:32:03.224Z,78.75
2019-05-16T12:34:38.638Z,78.92
2019-05-16T12:37:16.122Z,78.13
2019-05-16T12:39:51.996Z,78.19
2019-05-16T12:42:27.081Z,77.95
2019-05-16T12:45:02.676Z,78.23
2019-05-16T12:47:38.684Z,77.81
2019-05-16T12:50:13.978Z,78.34
2019-05-16T12:52:49.217Z,78.15
2019-05-16T12:55:23.172Z,77.79
2019-05-16T12:58:11.835Z,77.76
2019-05-16T13:00:32.746Z,77.86
2019-05-16T13:03:07.151Z,77.37
2019-05-16T13:05:40.562Z,77.03
2019-05-16T13:08:17.236Z,77.39
2019-05-16T13:10:49.613Z,77.90
2019-05-16T13:13:23.698Z,77.87
2019-05-16T13:15:56.895Z,77.70
2019-05-16T13:18:30.144Z,75.80
2019-05-16T13:21:03.442Z,75.82
2019-05-16T13:23:36.499Z,76.64
2019-05-16T13:26:09.811Z,76.44
2019-05-16T13:28:42.979Z,76.82
2019-05-16T13:31:17.588Z,76.97
2019-05-16T13:33:56.833Z,76.69
2019-05-16T13:36:29.510Z,74.26
2019-05-16T13:39:07.813Z,75.02
2019-05-16T13:41:39.464Z,73.70
2019-05-16T13:44:18.550Z,74.37
2019-05-16T13:46:47.366Z,74.76
2019-05-16T13:49:20.525Z,75.33
2019-05-16T13:51:53.666Z,74.96
2019-05-16T13:54:27.024Z,74.92
2019-05-16T13:57:00.178Z,74.44
2019-05-16T13:59:33.428Z,74.90
2019-05-16T14:02:07.961Z,75.18
2019-05-16T14:04:41.372Z,75.41
2019-05-16T14:07:17.167Z,74.97
2019-05-16T14:09:50.009Z,75.44
2019-05-16T14:12:27.353Z,75.34
2019-05-16T14:15:00.614Z,74.97
2019-05-16T14:17:36.751Z,74.59
2019-05-16T14:20:14.447Z,74.63
2019-05-16T14:22:44.136Z,74.68
2019-05-16T14:25:18.761Z,74.74
2019-05-16T14:27:52.117Z,73.90
2019-05-16T14:30:28.299Z,72.87
2019-05-16T14:33:02.113Z,73.19
2019-05-16T14:35:37.695Z,73.71
2019-05-16T14:38:10.533Z,72.09
2019-05-16T14:40:47.588Z,72.84
2019-05-16T14:43:19.056Z,73.31
2019-05-16T14:45:57.214Z,74.12
2019-05-16T14:48:30.655Z,73.73
2019-05-16T14:51:05.010Z,74.18
2019-05-16T14:53:38.359Z,73.41
2019-05-16T14:56:11.557Z,73.62
2019-05-16T14:58:48.186Z,73.35
2019-05-16T15:01:19.834Z,73.28
2019-05-16T15:03:53.077Z,73.19
2019-05-16T15:06:27.638Z,73.23
2019-05-16T15:09:00.937Z,73.52
2019-05-16T15:11:35.737Z,72.49
2019-05-16T15:14:09.055Z,72.09
2019-05-16T15:16:42.326Z,72.77
2019-05-16T15:19:17.495Z,73.13
2019-05-16T15:21:50.620Z,71.99
2019-05-16T15:24:23.838Z,72.59
2019-05-16T15:27:01.169Z,71.74
2019-05-16T15:29:31.906Z,71.97
2019-05-16T15:32:07.006Z,71.95
2019-05-16T15:34:41.342Z,71.88
2019-05-16T15:37:16.985Z,72.61
2019-05-16T15:39:49.593Z,72.03
2019-05-16T15:42:22.869Z,71.02
2019-05-16T15:44:56.209Z,71.26
2019-05-16T15:47:30.738Z,71.54
2019-05-16T15:50:04.220Z,71.41
2019-05-16T15:52:39.302Z,71.79
2019-05-16T15:55:12.891Z,71.51
2019-05-16T15:57:47.510Z,71.83
2019-05-16T16:01:01.641Z,71.73
2019-05-16T16:03:37.950Z,71.45
2019-05-16T16:06:09.959Z,71.46
2019-05-16T16:08:43.292Z,71.75
2019-05-16T16:11:17.294Z,71.41
2019-05-16T16:13:50.717Z,71.62
2019-05-16T16:16:26.757Z,71.28
2019-05-16T16:19:00.211Z,71.53
2019-05-16T16:21:33.486Z,71.90
2019-05-16T16:24:09.126Z,72.58
2019-05-16T16:26:41.956Z,72.51
2019-05-16T16:29:16.910Z,72.49
2019-05-16T16:31:50.534Z,72.96
2019-05-16T16:34:23.840Z,72.88
2019-05-16T16:36:58.595Z,72.65
2019-05-16T16:39:32.283Z,72.48
2019-05-16T16:42:07.619Z,72.49
2019-05-16T16:44:43.613Z,72.50
2019-05-16T16:47:17.618Z,72.29
2019-05-16T16:49:51.750Z,72.40
2019-05-16T16:52:27.229Z,72.41
2019-05-16T16:55:00.782Z,72.67
2019-05-16T16:57:38.291Z,72.49
2019-05-16T17:00:13.596Z,72.79
2019-05-16T17:03:02.103Z,73.04
2019-05-16T17:05:26.529Z,73.74
2019-05-16T17:07:59.767Z,74.13
2019-05-16T17:10:33.065Z,73.98
2019-05-16T17:13:07.409Z,73.69
2019-05-16T17:16:18.003Z,73.81
2019-05-16T17:18:32.019Z,73.83
2019-05-16T17:21:07.814Z,73.51
2019-05-16T17:23:42.314Z,73.47
2019-05-16T17:26:15.737Z,73.71
2019-05-16T17:28:48.978Z,73.66
2019-05-16T17:31:22.343Z,73.50
2019-05-16T17:33:57.726Z,73.61
2019-05-16T17:36:37.221Z,73.75
2019-05-16T17:39:18.325Z,73.54
2019-05-16T17:45:01.388Z,74.28
2019-05-16T17:47:37.074Z,73.78
2019-05-16T17:50:11.012Z,73.92
2019-05-16T17:52:52.107Z,73.80
2019-05-16T17:55:30.852Z,73.49
2019-05-16T17:58:35.095Z,74.00
